createdAt,value
2018-02-11T00:00:49.058Z,10.00
2018-02-11T00:03:17.298Z,9.60
2018-02-11T00:05:44.799Z,10.43
2018-02-11T00:08:12.275Z,10.23
2018-02-11T00:10:40.538Z,9.00
2018-02-11T00:13:08.015Z,8.37
2018-02-11T00:15:35.507Z,9.43
2018-02-11T00:18:03.742Z,8.30
2018-02-11T00:20:31.238Z,8.70
2018-02-11T00:22:58.708Z,7.73
2018-02-11T00:25:26.198Z,8.17
2018-02-11T00:27:54.443Z,7.60
2018-02-11T00:30:21.934Z,7.90
2018-02-11T00:32:49.407Z,8.30
2018-02-11T00:35:16.911Z,6.23
2018-02-11T00:37:50.115Z,7.60
2018-02-11T00:40:18.370Z,7.50
2018-02-11T00:42:45.843Z,8.03
2018-02-11T00:45:13.343Z,7.20
2018-02-11T00:47:41.583Z,8.10
2018-02-11T00:50:09.064Z,7.97
2018-02-11T00:52:36.563Z,8.07
2018-02-11T00:55:04.798Z,7.93
2018-02-11T00:57:32.292Z,7.00
2018-02-11T00:59:59.772Z,8.27
2018-02-11T01:02:27.276Z,6.87
2018-02-11T01:04:54.747Z,9.03
2018-02-11T01:07:22.251Z,8.90
2018-02-11T01:09:49.726Z,9.00
2018-02-11T01:12:17.982Z,9.87
2018-02-11T01:14:45.455Z,9.00
2018-02-11T01:17:12.960Z,10.67
2018-02-11T01:19:40.435Z,9.93
2018-02-11T01:22:07.931Z,10.73
2018-02-11T01:24:36.173Z,11.17
2018-02-11T01:27:03.666Z,10.97
2018-02-11T01:29:31.138Z,9.97
2018-02-11T01:31:58.660Z,10.77
2018-02-11T01:34:26.143Z,9.40
2018-02-11T01:36:53.614Z,10.17
2018-02-11T01:39:21.114Z,10.93
2018-02-11T01:41:48.590Z,9.80
2018-02-11T01:44:16.083Z,11.47
2018-02-11T01:46:44.326Z,10.80
2018-02-11T01:49:11.822Z,9.87
2018-02-11T01:51:39.301Z,10.10
2018-02-11T01:54:07.647Z,10.60
2018-02-11T01:56:35.124Z,9.50
2018-02-11T01:59:02.623Z,10.90
2018-02-11T02:01:30.105Z,11.30
2018-02-11T02:03:58.382Z,9.47
2018-02-11T02:06:25.859Z,10.57
2018-02-11T02:08:53.362Z,10.10
2018-02-11T02:11:20.842Z,11.50
2018-02-11T02:13:48.339Z,10.00
2018-02-11T02:16:16.584Z,11.33
2018-02-11T02:18:44.083Z,11.30
2018-02-11T02:21:11.558Z,11.33
2018-02-11T02:23:39.054Z,11.23
2018-02-11T02:26:06.534Z,9.93
2018-02-11T02:28:34.031Z,9.57
2018-02-11T02:31:01.514Z,10.70
2018-02-11T02:33:29.013Z,10.03
2018-02-11T02:35:56.491Z,9.30
2018-02-11T02:38:23.975Z,11.93
2018-02-11T02:40:51.467Z,9.93
2018-02-11T02:43:18.942Z,10.63
2018-02-11T02:45:47.206Z,9.83
2018-02-11T02:48:14.692Z,10.50
2018-02-11T02:50:42.959Z,9.73
2018-02-11T02:53:10.435Z,9.80
2018-02-11T02:55:37.940Z,10.67
2018-02-11T02:58:05.422Z,9.30
2018-02-11T03:00:32.923Z,10.63
2018-02-11T03:03:00.399Z,9.23
2018-02-11T03:05:27.894Z,10.43
2018-02-11T03:07:55.370Z,9.00
2018-02-11T03:10:23.634Z,10.50
2018-02-11T03:12:51.110Z,10.03
2018-02-11T03:15:18.606Z,10.37
2018-02-11T03:17:46.859Z,10.10
2018-02-11T03:20:14.354Z,10.27
2018-02-11T03:22:42.598Z,10.40
2018-02-11T03:25:10.097Z,10.17
2018-02-11T03:27:37.579Z,10.33
2018-02-11T03:30:05.845Z,10.93
2018-02-11T03:32:33.326Z,10.23
2018-02-11T03:35:00.818Z,10.60
2018-02-11T03:37:29.063Z,10.63
2018-02-11T03:39:56.552Z,9.10
2018-02-11T03:42:24.034Z,11.70
2018-02-11T03:44:52.294Z,14.60
2018-02-11T03:47:19.776Z,10.70
2018-02-11T03:49:47.280Z,8.73
2018-02-11T03:52:15.530Z,11.53
2018-02-11T03:54:43.028Z,10.57
2018-02-11T03:57:11.273Z,10.67
2018-02-11T03:59:38.776Z,11.90
2018-02-11T04:02:06.255Z,11.80
2018-02-11T04:04:34.524Z,11.97
2018-02-11T04:07:02.002Z,11.80
2018-02-11T04:09:29.479Z,11.77
2018-02-11T04:11:57.745Z,11.70
2018-02-11T04:14:25.218Z,11.60
2018-02-11T04:16:52.714Z,11.73
2018-02-11T04:19:20.954Z,11.57
2018-02-11T04:21:48.449Z,12.43
2018-02-11T04:24:15.927Z,11.10
2018-02-11T04:26:43.423Z,11.20
2018-02-11T04:29:10.904Z,10.93
2018-02-11T04:31:38.402Z,12.40
2018-02-11T04:34:05.887Z,10.60
2018-02-11T04:36:33.390Z,11.93
2018-02-11T04:39:01.635Z,10.60
2018-02-11T04:41:29.130Z,13.17
2018-02-11T04:43:56.610Z,10.87
2018-02-11T04:46:24.887Z,10.13
2018-02-11T04:48:52.363Z,10.47
2018-02-11T04:51:19.858Z,11.23
2018-02-11T04:53:47.339Z,10.33
2018-02-11T04:56:14.835Z,10.80
2018-02-11T04:58:42.330Z,9.60
2018-02-11T05:01:09.827Z,10.80
2018-02-11T05:03:38.087Z,10.93
2018-02-11T05:06:05.582Z,10.20
2018-02-11T05:08:33.838Z,10.10
2018-02-11T05:11:01.329Z,9.50
2018-02-11T05:13:28.798Z,9.20
2018-02-11T05:15:56.295Z,9.80
2018-02-11T05:18:24.539Z,10.13
2018-02-11T05:20:52.026Z,8.93
2018-02-11T05:23:19.498Z,8.87
2018-02-11T05:25:46.994Z,9.10
2018-02-11T05:28:14.472Z,11.03
2018-02-11T05:30:42.028Z,10.00
2018-02-11T05:33:09.464Z,8.87
2018-02-11T05:35:36.963Z,9.60
2018-02-11T05:38:05.202Z,9.67
2018-02-11T05:40:32.691Z,9.10
2018-02-11T05:43:00.159Z,8.67
2018-02-11T05:45:27.654Z,11.10
2018-02-11T05:47:55.891Z,8.67
2018-02-11T05:50:23.383Z,10.47
2018-02-11T05:52:50.864Z,13.57
2018-02-11T05:55:18.368Z,11.10
2018-02-11T05:57:46.610Z,12.90
2018-02-11T06:00:14.107Z,13.30
2018-02-11T06:02:42.356Z,12.00
2018-02-11T06:05:09.850Z,12.90
2018-02-11T06:07:37.330Z,14.00
2018-02-11T06:10:04.827Z,13.23
2018-02-11T06:12:32.303Z,12.80
2018-02-11T06:14:59.778Z,12.90
2018-02-11T06:17:27.271Z,14.20
2018-02-11T06:19:54.751Z,13.47
2018-02-11T06:22:22.251Z,13.17
2018-02-11T06:24:50.494Z,12.53
2018-02-11T06:27:17.995Z,11.87
2018-02-11T06:29:45.476Z,12.10
2018-02-11T06:32:12.976Z,13.90
2018-02-11T06:34:40.454Z,13.37
2018-02-11T06:37:07.946Z,13.10
2018-02-11T06:39:35.431Z,13.00
2018-02-11T06:42:02.923Z,11.90
2018-02-11T06:44:30.402Z,13.73
2018-02-11T06:46:58.667Z,12.80
2018-02-11T06:49:26.146Z,13.57
2018-02-11T06:51:53.643Z,14.60
2018-02-11T06:54:21.886Z,15.97
2018-02-11T06:56:49.383Z,14.83
2018-02-11T06:59:16.862Z,14.90
2018-02-11T07:01:44.358Z,15.37
2018-02-11T07:04:11.835Z,16.03
2018-02-11T07:06:39.339Z,16.33
2018-02-11T07:09:06.815Z,15.47
2018-02-11T07:11:34.315Z,16.83
2018-02-11T07:14:02.555Z,15.53
2018-02-11T07:16:30.055Z,15.60
2018-02-11T07:18:57.539Z,15.37
2018-02-11T07:21:25.799Z,15.40
2018-02-11T07:23:53.272Z,13.87
2018-02-11T07:26:20.761Z,14.10
2018-02-11T07:28:49.010Z,14.53
2018-02-11T07:31:16.511Z,13.23
2018-02-11T07:33:43.986Z,13.77
2018-02-11T07:36:12.294Z,15.27
2018-02-11T07:38:40.535Z,13.93
2018-02-11T07:41:08.037Z,14.00
2018-02-11T07:43:36.278Z,14.03
2018-02-11T07:46:03.779Z,16.07
2018-02-11T07:48:31.254Z,14.77
2018-02-11T07:50:58.755Z,15.50
2018-02-11T07:53:26.231Z,15.70
2018-02-11T07:55:53.727Z,15.20
2018-02-11T07:58:21.206Z,14.30
2018-02-11T08:00:48.698Z,14.70
2018-02-11T08:03:16.173Z,13.67
2018-02-11T08:05:43.672Z,14.93
2018-02-11T08:08:11.146Z,14.40
2018-02-11T08:10:38.642Z,13.60
2018-02-11T08:13:06.122Z,14.57
2018-02-11T08:15:34.386Z,14.83
2018-02-11T08:18:01.866Z,14.10
2018-02-11T08:20:29.342Z,13.13
2018-02-11T08:22:56.843Z,13.07
2018-02-11T08:25:24.319Z,12.53
2018-02-11T08:27:51.817Z,13.30
2018-02-11T08:30:20.059Z,13.20
2018-02-11T08:32:47.554Z,12.27
2018-02-11T08:35:15.039Z,14.43
2018-02-11T08:37:43.302Z,13.30
2018-02-11T08:40:10.775Z,11.90
2018-02-11T08:42:38.270Z,11.97
2018-02-11T08:45:05.747Z,12.60
2018-02-11T08:47:33.250Z,11.33
2018-02-11T08:50:00.727Z,11.77
2018-02-11T08:52:28.227Z,11.90
2018-02-11T08:54:55.707Z,12.00
2018-02-11T08:57:23.206Z,12.10
2018-02-11T08:59:50.691Z,11.80
2018-02-11T09:02:18.186Z,15.43
2018-02-11T09:04:45.666Z,13.23
2018-02-11T09:07:13.159Z,12.00
2018-02-11T09:09:41.403Z,11.40
2018-02-11T09:12:08.902Z,12.67
2018-02-11T09:14:36.382Z,13.27
2018-02-11T09:17:04.656Z,10.23
2018-02-11T09:19:32.134Z,11.13
2018-02-11T09:21:59.637Z,13.30
2018-02-11T09:24:27.114Z,12.93
2018-02-11T09:26:54.615Z,10.97
2018-02-11T09:29:22.098Z,11.07
2018-02-11T09:31:49.595Z,11.97
2018-02-11T09:34:17.840Z,11.67
2018-02-11T09:36:45.358Z,14.90
2018-02-11T09:39:13.614Z,12.20
2018-02-11T09:41:41.150Z,9.60
2018-02-11T09:44:08.624Z,11.30
2018-02-11T09:46:36.139Z,9.40
2018-02-11T09:49:03.613Z,9.27
2018-02-11T09:51:31.114Z,9.97
2018-02-11T09:53:58.590Z,10.40
2018-02-11T09:56:26.107Z,10.50
2018-02-11T09:58:53.579Z,9.83
2018-02-11T10:01:21.117Z,9.77
2018-02-11T10:03:48.595Z,9.40
2018-02-11T10:06:16.124Z,9.33
2018-02-11T10:08:44.358Z,9.40
2018-02-11T10:11:11.863Z,10.17
2018-02-11T10:13:39.338Z,9.33
2018-02-11T10:16:06.834Z,8.97
2018-02-11T10:18:34.311Z,9.70
2018-02-11T10:21:01.844Z,8.50
2018-02-11T10:23:30.107Z,8.10
2018-02-11T10:25:57.594Z,9.37
2018-02-11T10:28:25.111Z,9.23
2018-02-11T10:30:52.598Z,8.13
2018-02-11T10:33:20.094Z,8.37
2018-02-11T10:35:47.570Z,10.67
2018-02-11T10:38:15.075Z,10.27
2018-02-11T10:40:43.310Z,8.37
2018-02-11T10:43:10.850Z,8.33
2018-02-11T10:45:38.325Z,8.33
2018-02-11T10:48:05.871Z,8.73
2018-02-11T10:50:34.111Z,8.20
2018-02-11T10:53:01.615Z,8.37
2018-02-11T10:55:29.864Z,8.10
2018-02-11T10:57:58.363Z,6.93
2018-02-11T11:00:25.845Z,9.63
2018-02-11T11:02:53.354Z,7.90
2018-02-11T11:05:21.602Z,8.63
2018-02-11T11:07:49.110Z,7.93
2018-02-11T11:10:17.367Z,8.00
2018-02-11T11:12:44.867Z,7.60
2018-02-11T11:15:12.348Z,8.23
2018-02-11T11:17:39.851Z,7.80
2018-02-11T11:20:07.327Z,7.73
2018-02-11T11:22:34.831Z,7.80
2018-02-11T11:25:03.071Z,7.17
2018-02-11T11:27:30.566Z,7.50
2018-02-11T11:29:58.039Z,8.00
2018-02-11T11:32:25.560Z,7.10
2018-02-11T11:34:53.046Z,6.83
2018-02-11T11:37:20.552Z,8.03
2018-02-11T11:39:48.021Z,6.93
2018-02-11T11:42:15.510Z,7.20
2018-02-11T11:44:42.987Z,7.63
2018-02-11T11:47:11.273Z,6.70
2018-02-11T11:49:39.519Z,7.53
2018-02-11T11:52:07.006Z,7.80
2018-02-11T11:54:34.485Z,7.70
2018-02-11T11:57:01.974Z,6.50
2018-02-11T11:59:30.245Z,6.67
2018-02-11T12:01:57.742Z,7.37
2018-02-11T12:04:25.983Z,6.77
2018-02-11T12:06:53.487Z,5.57
2018-02-11T12:09:20.971Z,6.20
2018-02-11T12:11:49.227Z,6.20
2018-02-11T12:14:16.710Z,7.60
2018-02-11T12:16:44.214Z,6.57
2018-02-11T12:19:11.692Z,6.30
2018-02-11T12:21:39.203Z,6.40
2018-02-11T12:24:06.667Z,5.57
2018-02-11T12:26:34.150Z,5.37
2018-02-11T12:29:01.691Z,4.23
2018-02-11T12:31:29.172Z,3.60
2018-02-11T12:33:56.671Z,3.57
2018-02-11T12:36:24.914Z,2.60
2018-02-11T12:38:52.438Z,4.47
2018-02-11T12:41:20.679Z,4.40
2018-02-11T12:43:48.178Z,2.33
2018-02-11T12:46:15.654Z,2.17
2018-02-11T12:48:43.923Z,2.30
2018-02-11T12:51:11.398Z,2.03
2018-02-11T12:53:38.887Z,1.60
2018-02-11T12:56:06.360Z,1.90
2018-02-11T12:58:34.635Z,2.20
2018-02-11T13:01:02.132Z,1.83
2018-02-11T13:03:30.394Z,1.20
2018-02-11T13:05:57.861Z,1.97
2018-02-11T13:08:25.391Z,1.50
2018-02-11T13:10:52.884Z,1.50
2018-02-11T13:13:20.388Z,1.70
2018-02-11T13:15:48.673Z,1.67
2018-02-11T13:18:16.148Z,1.33
2018-02-11T13:20:44.407Z,1.60
2018-02-11T13:23:11.931Z,2.87
2018-02-11T13:25:40.167Z,3.60
2018-02-11T13:28:07.647Z,3.57
2018-02-11T13:30:35.138Z,3.40
2018-02-11T13:33:03.383Z,4.10
2018-02-11T13:35:30.890Z,3.63
2018-02-11T13:37:59.135Z,4.00
2018-02-11T13:40:26.630Z,3.53
2018-02-11T13:42:54.095Z,4.10
2018-02-11T13:45:21.610Z,4.13
2018-02-11T13:47:49.088Z,4.00
2018-02-11T13:50:16.558Z,3.37
2018-02-11T13:52:44.056Z,3.30
2018-02-11T13:55:11.607Z,4.50
2018-02-11T13:57:39.099Z,3.23
2018-02-11T14:00:06.778Z,4.00
2018-02-11T14:02:34.275Z,4.13
2018-02-11T14:05:02.528Z,4.57
2018-02-11T14:07:30.026Z,4.57
2018-02-11T14:09:57.495Z,5.30
2018-02-11T14:12:24.990Z,4.40
2018-02-11T14:14:53.236Z,4.73
2018-02-11T14:17:20.730Z,4.77
2018-02-11T14:19:48.202Z,4.50
2018-02-11T14:22:15.717Z,4.33
2018-02-11T14:24:43.203Z,3.40
2018-02-11T14:27:10.704Z,5.27
2018-02-11T14:29:38.175Z,4.73
2018-02-11T14:32:05.658Z,4.67
2018-02-11T14:34:33.898Z,4.60
2018-02-11T14:37:01.388Z,5.93
2018-02-11T14:39:28.875Z,5.50
2018-02-11T14:41:56.362Z,5.00
2018-02-11T14:44:23.832Z,5.20
2018-02-11T14:46:52.102Z,6.20
2018-02-11T14:49:19.583Z,5.43
2018-02-11T14:54:22.362Z,6.20
2018-02-11T14:56:49.867Z,5.97
2018-02-11T14:59:17.369Z,6.23
2018-02-11T15:01:44.851Z,6.47
2018-02-11T15:04:12.351Z,5.30
2018-02-11T15:06:39.829Z,5.30
2018-02-11T15:09:07.318Z,6.77
2018-02-11T15:11:34.792Z,5.53
2018-02-11T15:14:02.283Z,4.70
2018-02-11T15:16:30.523Z,6.57
2018-02-11T15:18:58.018Z,5.30
2018-02-11T15:21:25.483Z,4.23
2018-02-11T15:23:52.979Z,4.97
2018-02-11T15:26:21.227Z,4.60
2018-02-11T15:28:48.714Z,4.23
2018-02-11T15:31:16.194Z,4.60
2018-02-11T15:33:44.446Z,5.83
2018-02-11T15:36:11.929Z,4.90
2018-02-11T15:38:39.419Z,4.30
2018-02-11T15:41:07.672Z,5.20
2018-02-11T15:43:35.172Z,4.67
2018-02-11T15:46:02.642Z,3.93
2018-02-11T15:48:30.135Z,4.53
2018-02-11T15:50:57.614Z,3.50
2018-02-11T15:53:25.104Z,4.03
2018-02-11T15:55:52.571Z,4.20
2018-02-11T15:58:20.059Z,3.13
2018-02-11T16:00:47.543Z,4.27
2018-02-11T16:03:15.046Z,3.83
2018-02-11T16:05:42.543Z,4.60
2018-02-11T16:08:10.047Z,4.17
2018-02-11T16:10:37.519Z,3.70
2018-02-11T16:13:05.013Z,3.37
2018-02-11T16:15:32.483Z,3.30
2018-02-11T16:17:59.982Z,2.00
2018-02-11T16:20:27.446Z,1.97
2018-02-11T16:22:54.938Z,1.83
2018-02-11T16:25:22.405Z,1.70
2018-02-11T16:27:49.878Z,1.90
2018-02-11T16:30:17.367Z,2.37
2018-02-11T16:32:44.836Z,2.03
2018-02-11T16:35:12.344Z,2.33
2018-02-11T16:37:40.583Z,2.60
2018-02-11T16:40:08.853Z,3.20
2018-02-11T16:42:36.325Z,2.30
2018-02-11T16:45:03.822Z,2.40
2018-02-11T16:47:31.304Z,2.63
2018-02-11T16:49:58.799Z,2.70
2018-02-11T16:52:27.035Z,3.07
2018-02-11T16:54:55.290Z,2.63
2018-02-11T16:57:23.523Z,2.97
2018-02-11T16:59:51.019Z,3.40
2018-02-11T17:02:18.498Z,2.80
2018-02-11T17:04:46.000Z,2.57
2018-02-11T17:07:13.478Z,2.43
2018-02-11T17:09:40.994Z,3.27
2018-02-11T17:12:08.506Z,2.80
2018-02-11T17:14:35.995Z,3.13
2018-02-11T17:17:03.468Z,5.33
2018-02-11T17:19:30.959Z,3.43
2018-02-11T17:21:58.427Z,3.00
2018-02-11T17:24:25.924Z,3.93
2018-02-11T17:26:53.390Z,3.03
2018-02-11T17:29:20.880Z,3.87
2018-02-11T17:31:49.139Z,3.27
2018-02-11T17:34:16.630Z,3.10
2018-02-11T17:36:44.875Z,3.43
2018-02-11T17:39:12.363Z,3.73
2018-02-11T17:41:39.837Z,3.70
2018-02-11T17:44:07.339Z,2.83
2018-02-11T17:46:35.583Z,3.90
2018-02-11T17:49:03.075Z,4.03
2018-02-11T17:51:30.542Z,4.07
2018-02-11T17:53:58.046Z,3.90
2018-02-11T17:56:25.523Z,4.13
2018-02-11T17:58:53.019Z,3.80
2018-02-11T18:01:20.492Z,3.50
2018-02-11T18:03:47.987Z,3.73
2018-02-11T18:06:15.468Z,3.60
2018-02-11T18:08:42.971Z,3.57
2018-02-11T18:11:10.435Z,4.00
2018-02-11T18:13:37.935Z,4.50
2018-02-11T18:16:05.415Z,4.43
2018-02-11T18:18:32.903Z,6.00
2018-02-11T18:21:00.386Z,4.73
2018-02-11T18:23:27.915Z,4.40
2018-02-11T18:25:55.426Z,4.20
2018-02-11T18:28:22.919Z,3.70
2018-02-11T18:30:51.154Z,4.47
2018-02-11T18:33:18.617Z,4.70
2018-02-11T18:35:46.106Z,4.10
2018-02-11T18:38:13.586Z,4.30
2018-02-11T18:40:41.088Z,4.70
2018-02-11T18:43:09.322Z,4.40
2018-02-11T18:45:36.824Z,4.80
2018-02-11T18:48:04.296Z,4.03
2018-02-11T18:50:31.783Z,4.40
2018-02-11T18:53:00.029Z,5.43
2018-02-11T18:55:27.522Z,5.37
2018-02-11T18:57:54.988Z,4.77
2018-02-11T19:00:22.483Z,4.90
2018-02-11T19:02:49.951Z,5.10
2018-02-11T19:05:18.210Z,4.40
2018-02-11T19:07:45.675Z,4.20
2018-02-11T19:10:13.173Z,3.80
2018-02-11T19:12:41.476Z,4.47
2018-02-11T19:15:08.966Z,4.40
2018-02-11T19:17:36.447Z,5.67
2018-02-11T19:20:03.948Z,5.20
2018-02-11T19:22:31.422Z,4.50
2018-02-11T19:24:58.914Z,6.67
2018-02-11T19:27:27.159Z,6.00
2018-02-11T19:29:54.652Z,6.13
2018-02-11T19:32:22.137Z,6.33
2018-02-11T19:34:50.399Z,6.27
2018-02-11T19:37:17.880Z,7.63
2018-02-11T19:39:45.376Z,5.97
2018-02-11T19:42:12.911Z,4.70
2018-02-11T19:44:40.417Z,5.40
2018-02-11T19:47:07.895Z,5.60
2018-02-11T19:49:35.386Z,5.73
2018-02-11T19:52:02.859Z,4.80
2018-02-11T19:54:30.353Z,7.10
2018-02-11T19:56:57.895Z,5.70
2018-02-11T19:59:26.116Z,5.90
2018-02-11T20:01:53.597Z,6.30
2018-02-11T20:04:21.102Z,7.10
2018-02-11T20:06:48.587Z,7.40
2018-02-11T20:09:16.854Z,7.60
2018-02-11T20:11:44.359Z,7.03
2018-02-11T20:14:11.881Z,6.93
2018-02-11T20:16:40.129Z,8.13
2018-02-11T20:19:07.619Z,6.50
2018-02-11T20:21:35.095Z,6.97
2018-02-11T20:24:02.599Z,7.60
2018-02-11T20:26:30.080Z,7.90
2018-02-11T20:28:57.580Z,6.97
2018-02-11T20:31:25.054Z,7.87
2018-02-11T20:33:52.527Z,6.43
2018-02-11T20:36:20.022Z,6.77
2018-02-11T20:38:47.513Z,8.03
2018-02-11T20:41:15.791Z,6.93
2018-02-11T20:43:43.290Z,6.90
2018-02-11T20:46:10.779Z,6.13
2018-02-11T20:48:38.264Z,7.23
2018-02-11T20:51:05.780Z,7.60
2018-02-11T20:53:34.027Z,6.70
2018-02-11T20:56:01.523Z,7.37
2018-02-11T20:58:29.002Z,7.27
2018-02-11T21:00:57.258Z,7.17
2018-02-11T21:03:24.737Z,6.97
2018-02-11T21:05:52.234Z,6.47
2018-02-11T21:08:20.474Z,6.90
2018-02-11T21:10:47.972Z,8.80
2018-02-11T21:13:15.474Z,6.57
2018-02-11T21:15:42.994Z,5.87
2018-02-11T21:18:10.471Z,6.10
2018-02-11T21:20:38.025Z,6.77
2018-02-11T21:23:06.207Z,6.60
2018-02-11T21:25:33.703Z,6.10
2018-02-11T21:28:01.176Z,6.47
2018-02-11T21:30:28.675Z,6.30
2018-02-11T21:32:56.947Z,6.13
2018-02-11T21:35:24.442Z,6.67
2018-02-11T21:37:51.919Z,6.67
2018-02-11T21:40:19.410Z,6.90
2018-02-11T21:42:46.892Z,5.80
2018-02-11T21:45:14.387Z,6.10
2018-02-11T21:47:41.863Z,7.10
2018-02-11T21:50:09.372Z,5.50
2018-02-11T21:52:36.846Z,5.40
2018-02-11T21:55:04.343Z,6.17
2018-02-11T21:57:31.827Z,8.20
2018-02-11T21:59:59.324Z,7.07
2018-02-11T22:02:27.562Z,6.87
2018-02-11T22:04:55.050Z,5.83
2018-02-11T22:07:22.530Z,6.07
2018-02-11T22:09:50.027Z,5.50
2018-02-11T22:12:18.262Z,5.37
2018-02-11T22:14:45.767Z,5.70
2018-02-11T22:17:13.255Z,5.67
2018-02-11T22:19:41.519Z,4.50
2018-02-11T22:22:09.003Z,4.97
2018-02-11T22:24:36.490Z,5.07
2018-02-11T22:27:03.970Z,5.50
2018-02-11T22:29:31.462Z,6.27
2018-02-11T22:31:58.944Z,7.17
2018-02-11T22:34:26.440Z,7.00
2018-02-11T22:36:53.914Z,4.90
2018-02-11T22:39:21.396Z,5.20
2018-02-11T22:41:49.658Z,3.80
2018-02-11T22:44:17.135Z,4.27
2018-02-11T22:46:44.627Z,3.70
2018-02-11T22:49:12.111Z,4.23
2018-02-11T22:51:39.633Z,4.50
2018-02-11T22:54:07.099Z,3.90
2018-02-11T22:56:34.596Z,7.03
2018-02-11T22:59:02.842Z,3.60
2018-02-11T23:01:30.339Z,3.90
2018-02-11T23:03:59.822Z,3.37
2018-02-11T23:06:27.328Z,3.50
2018-02-11T23:08:54.794Z,2.93
2018-02-11T23:11:22.286Z,4.30
2018-02-11T23:13:49.763Z,6.60
2018-02-11T23:16:18.024Z,4.97
2018-02-11T23:18:45.497Z,4.30
2018-02-11T23:21:13.015Z,4.20
2018-02-11T23:23:40.491Z,3.40
2018-02-11T23:26:07.982Z,3.20
2018-02-11T23:28:35.455Z,4.10
2018-02-11T23:31:02.946Z,3.60
2018-02-11T23:33:30.419Z,3.80
2018-02-11T23:35:57.919Z,3.10
2018-02-11T23:38:26.154Z,3.40
2018-02-11T23:40:53.646Z,2.93
2018-02-11T23:43:21.119Z,3.00
2018-02-11T23:45:48.602Z,3.03
2018-02-11T23:48:16.847Z,2.63
2018-02-11T23:50:44.346Z,3.10
2018-02-11T23:53:11.828Z,2.67
2018-02-11T23:55:40.082Z,2.63
2018-02-11T23:58:07.550Z,4.80
